createdAt,value
2023-02-24T00:02:20.419Z,8.48
2023-02-24T00:06:39.058Z,8.30
2023-02-24T00:10:52.448Z,8.63
2023-02-24T00:15:05.361Z,8.51
2023-02-24T00:19:20.042Z,8.20
2023-02-24T00:23:32.422Z,8.00
2023-02-24T00:27:44.872Z,7.97
2023-02-24T00:32:07.024Z,7.90
2023-02-24T00:36:24.056Z,7.86
2023-02-24T00:40:37.540Z,7.78
2023-02-24T00:44:50.151Z,7.83
2023-02-24T00:49:08.013Z,7.76
2023-02-24T00:53:22.909Z,7.72
2023-02-24T00:57:35.728Z,7.71
2023-02-24T01:01:50.850Z,7.64
2023-02-24T01:06:03.796Z,7.57
2023-02-24T01:10:18.730Z,7.60
2023-02-24T01:14:33.781Z,7.50
2023-02-24T01:18:50.054Z,7.47
2023-02-24T01:23:03.716Z,7.49
2023-02-24T01:27:20.603Z,7.46
2023-02-24T01:31:33.020Z,7.43
2023-02-24T01:35:45.905Z,7.36
2023-02-24T01:39:59.741Z,7.38
2023-02-24T01:44:15.007Z,7.32
2023-02-24T01:48:30.263Z,7.30
2023-02-24T01:52:45.889Z,7.32
2023-02-24T01:56:59.123Z,7.11
2023-02-24T02:01:11.555Z,7.02
2023-02-24T02:05:25.267Z,6.98
2023-02-24T02:09:43.284Z,6.91
2023-02-24T02:13:57.169Z,6.74
2023-02-24T02:18:25.918Z,6.80
2023-02-24T02:23:19.681Z,6.76
2023-02-24T02:27:38.302Z,6.65
2023-02-24T02:32:38.652Z,6.53
2023-02-24T02:36:57.680Z,6.45
2023-02-24T02:41:23.991Z,6.46
2023-02-24T02:45:56.280Z,6.39
2023-02-24T02:50:30.843Z,6.46
2023-02-24T02:54:50.759Z,6.39
2023-02-24T02:59:07.548Z,6.45
2023-02-24T03:03:22.530Z,6.40
2023-02-24T03:07:43.087Z,6.36
2023-02-24T03:12:02.479Z,6.34
2023-02-24T03:16:18.892Z,6.33
2023-02-24T03:20:40.025Z,6.42
2023-02-24T03:24:53.815Z,6.41
2023-02-24T03:29:36.797Z,6.50
2023-02-24T03:34:00.931Z,6.51
2023-02-24T03:38:14.504Z,6.49
2023-02-24T03:42:34.075Z,6.43
2023-02-24T03:46:46.825Z,6.38
2023-02-24T03:50:59.774Z,6.44
2023-02-24T03:56:02.178Z,6.42
2023-02-24T04:00:37.402Z,6.32
2023-02-24T04:05:05.971Z,6.21
2023-02-24T04:09:57.456Z,6.32
2023-02-24T04:14:25.045Z,6.27
2023-02-24T04:18:40.874Z,6.32
2023-02-24T04:23:02.771Z,6.39
2023-02-24T04:27:16.995Z,6.35
2023-02-24T04:31:32.842Z,6.38
2023-02-24T04:35:48.387Z,6.39
2023-02-24T04:40:03.570Z,6.34
2023-02-24T04:44:21.452Z,6.26
2023-02-24T04:48:36.984Z,6.16
2023-02-24T04:53:01.209Z,6.16
2023-02-24T04:57:14.708Z,6.19
2023-02-24T05:01:28.148Z,6.11
2023-02-24T05:05:43.219Z,6.05
2023-02-24T05:09:55.611Z,6.04
2023-02-24T05:14:08.463Z,6.04
2023-02-24T05:18:21.163Z,6.01
2023-02-24T05:22:33.568Z,5.98
2023-02-24T05:26:46.972Z,5.93
2023-02-24T05:31:08.719Z,6.00
2023-02-24T05:35:21.446Z,6.10
2023-02-24T05:39:35.469Z,6.22
2023-02-24T05:43:55.229Z,6.24
2023-02-24T05:48:07.587Z,6.29
2023-02-24T05:52:20.749Z,6.38
2023-02-24T05:56:38.077Z,6.50
2023-02-24T06:00:50.512Z,6.63
2023-02-24T06:05:04.761Z,6.74
2023-02-24T06:09:17.178Z,6.86
2023-02-24T06:13:29.617Z,7.02
2023-02-24T06:17:42.174Z,7.24
2023-02-24T06:21:55.969Z,7.51
2023-02-24T06:26:19.758Z,7.74
2023-02-24T06:30:33.130Z,8.02
2023-02-24T06:34:46.005Z,8.27
2023-02-24T06:38:58.415Z,8.47
2023-02-24T06:43:11.230Z,8.23
2023-02-24T06:47:23.724Z,7.40
2023-02-24T06:51:36.060Z,8.00
2023-02-24T06:55:49.224Z,7.98
2023-02-24T07:00:17.279Z,7.63
2023-02-24T07:04:30.093Z,7.39
2023-02-24T07:08:44.331Z,7.50
2023-02-24T07:12:56.755Z,7.53
2023-02-24T07:17:09.369Z,7.70
2023-02-24T07:21:23.794Z,8.27
2023-02-24T07:25:36.277Z,9.20
2023-02-24T07:29:53.532Z,9.28
2023-02-24T07:34:06.712Z,8.97
2023-02-24T07:38:23.220Z,9.42
2023-02-24T07:42:35.694Z,9.85
2023-02-24T07:46:52.621Z,9.39
2023-02-24T07:51:13.451Z,9.40
2023-02-24T07:55:31.435Z,9.49
2023-02-24T07:59:47.891Z,9.62
2023-02-24T08:04:08.387Z,10.18
2023-02-24T08:08:25.810Z,10.60
2023-02-24T08:12:42.995Z,10.04
2023-02-24T08:17:05.620Z,10.25
2023-02-24T08:21:21.253Z,10.54
2023-02-24T08:25:36.911Z,10.95
2023-02-24T08:30:00.619Z,11.28
2023-02-24T08:34:16.359Z,11.87
2023-02-24T08:38:40.259Z,12.44
2023-02-24T08:42:52.758Z,12.93
2023-02-24T08:47:07.772Z,13.25
2023-02-24T08:51:29.203Z,13.53
2023-02-24T08:55:43.003Z,12.98
2023-02-24T08:59:58.249Z,12.88
2023-02-24T09:04:13.075Z,13.41
2023-02-24T09:08:36.060Z,14.37
2023-02-24T09:12:53.841Z,14.50
2023-02-24T09:17:11.802Z,15.03
2023-02-24T09:21:42.485Z,15.44
2023-02-24T09:25:54.883Z,14.17
2023-02-24T09:30:08.376Z,15.57
2023-02-24T09:34:20.674Z,16.53
2023-02-24T09:39:11.359Z,16.64
2023-02-24T09:43:31.060Z,16.59
2023-02-24T09:47:57.601Z,16.88
2023-02-24T09:52:17.734Z,17.43
2023-02-24T09:56:57.520Z,16.06
2023-02-24T10:01:33.755Z,16.76
2023-02-24T10:06:04.926Z,16.24
2023-02-24T10:10:36.157Z,15.85
2023-02-24T10:15:32.500Z,16.14
2023-02-24T10:19:45.078Z,15.57
2023-02-24T10:24:14.634Z,15.71
2023-02-24T10:28:52.186Z,16.71
2023-02-24T10:33:06.454Z,18.01
2023-02-24T10:37:28.717Z,17.63
2023-02-24T10:41:50.213Z,17.81
2023-02-24T10:46:17.647Z,16.74
2023-02-24T10:50:55.043Z,17.62
2023-02-24T10:55:41.650Z,17.23
2023-02-24T11:00:19.399Z,18.09
2023-02-24T11:05:10.139Z,17.63
2023-02-24T11:09:28.003Z,17.03
2023-02-24T11:14:07.484Z,16.94
2023-02-24T11:18:23.522Z,17.58
2023-02-24T11:22:39.890Z,17.89
2023-02-24T11:26:52.702Z,17.53
2023-02-24T11:31:28.831Z,17.99
2023-02-24T11:35:48.663Z,18.95
2023-02-24T11:40:23.557Z,19.73
2023-02-24T11:44:54.604Z,19.09
2023-02-24T11:49:22.310Z,18.62
2023-02-24T11:53:57.879Z,19.61
2023-02-24T11:58:44.622Z,18.59
2023-02-24T12:03:09.744Z,19.15
2023-02-24T12:07:50.692Z,18.75
2023-02-24T12:12:13.602Z,18.02
2023-02-24T12:16:40.856Z,19.47
2023-02-24T12:21:10.782Z,18.54
2023-02-24T12:25:36.049Z,17.77
2023-02-24T12:30:34.457Z,17.01
2023-02-24T12:35:07.767Z,16.91
2023-02-24T12:39:32.440Z,17.05
2023-02-24T12:44:13.976Z,17.27
2023-02-24T12:49:03.929Z,16.99
2023-02-24T12:53:41.733Z,16.81
2023-02-24T12:58:18.180Z,17.06
2023-02-24T13:03:24.519Z,17.79
2023-02-24T13:07:49.940Z,18.06
2023-02-24T13:12:28.309Z,17.64
2023-02-24T13:16:41.897Z,18.16
2023-02-24T13:21:23.047Z,17.68
2023-02-24T13:25:39.882Z,18.35
2023-02-24T13:29:53.571Z,18.33
2023-02-24T13:34:14.966Z,18.07
2023-02-24T13:38:33.169Z,18.32
2023-02-24T13:43:01.809Z,18.64
2023-02-24T13:47:41.035Z,18.26
2023-02-24T13:52:00.034Z,18.35
2023-02-24T13:56:34.399Z,18.17
2023-02-24T14:01:01.570Z,19.13
2023-02-24T14:05:41.762Z,18.06
2023-02-24T14:10:01.683Z,18.16
2023-02-24T14:14:19.055Z,19.13
2023-02-24T14:18:31.707Z,18.50
2023-02-24T14:22:46.769Z,19.13
2023-02-24T14:27:01.262Z,18.06
2023-02-24T14:31:16.543Z,18.13
2023-02-24T14:35:58.237Z,17.89
2023-02-24T14:40:16.372Z,18.47
2023-02-24T14:44:30.365Z,18.47
2023-02-24T14:48:44.388Z,17.77
2023-02-24T14:53:13.566Z,18.14
2023-02-24T14:57:30.820Z,17.61
2023-02-24T15:01:51.979Z,16.87
2023-02-24T15:06:15.946Z,17.24
2023-02-24T15:10:31.280Z,17.12
2023-02-24T15:14:51.365Z,17.06
2023-02-24T15:19:03.872Z,17.27
2023-02-24T15:23:38.385Z,16.81
2023-02-24T15:27:58.697Z,16.51
2023-02-24T15:32:21.777Z,16.10
2023-02-24T15:36:36.321Z,16.12
2023-02-24T15:41:01.335Z,15.93
2023-02-24T15:45:30.806Z,15.49
2023-02-24T15:49:43.440Z,15.42
2023-02-24T15:53:56.992Z,15.20
2023-02-24T15:58:18.920Z,14.92
2023-02-24T16:02:31.303Z,14.74
2023-02-24T16:06:54.783Z,14.60
2023-02-24T16:11:07.148Z,14.29
2023-02-24T16:15:27.522Z,14.02
2023-02-24T16:19:40.744Z,13.84
2023-02-24T16:23:53.166Z,13.77
2023-02-24T16:28:05.713Z,13.54
2023-02-24T16:32:18.475Z,13.38
2023-02-24T16:36:31.616Z,13.20
2023-02-24T16:40:46.888Z,13.16
2023-02-24T16:44:59.213Z,12.94
2023-02-24T16:49:18.412Z,12.81
2023-02-24T16:53:31.255Z,12.59
2023-02-24T16:57:45.115Z,12.55
2023-02-24T17:01:58.169Z,12.58
2023-02-24T17:06:10.747Z,12.53
2023-02-24T17:10:24.429Z,12.32
2023-02-24T17:14:36.715Z,12.13
2023-02-24T17:18:49.109Z,12.18
2023-02-24T17:23:01.719Z,12.23
2023-02-24T17:27:14.561Z,12.38
2023-02-24T17:31:32.025Z,12.22
2023-02-24T17:35:47.333Z,11.93
2023-02-24T17:39:59.981Z,12.01
2023-02-24T17:44:12.427Z,11.76
2023-02-24T17:48:24.920Z,11.75
2023-02-24T17:52:37.535Z,11.80
2023-02-24T17:56:49.941Z,11.59
2023-02-24T18:01:03.717Z,11.50
2023-02-24T18:05:16.283Z,11.37
2023-02-24T18:09:29.416Z,10.99
2023-02-24T18:13:42.040Z,10.50
2023-02-24T18:17:54.551Z,10.60
2023-02-24T18:22:07.465Z,9.98
2023-02-24T18:26:21.901Z,9.71
2023-02-24T18:30:39.468Z,9.72
2023-02-24T18:34:51.833Z,9.69
2023-02-24T18:39:05.271Z,9.55
2023-02-24T18:43:17.663Z,9.47
2023-02-24T18:47:29.950Z,9.59
2023-02-24T18:51:42.508Z,9.82
2023-02-24T18:56:02.723Z,10.38
2023-02-24T19:00:15.798Z,10.08
2023-02-24T19:04:28.483Z,9.63
2023-02-24T19:08:42.694Z,10.54
2023-02-24T19:12:55.099Z,10.28
2023-02-24T19:17:07.499Z,9.68
2023-02-24T19:21:21.178Z,10.17
2023-02-24T19:25:34.569Z,9.49
2023-02-24T19:29:47.071Z,9.98
2023-02-24T19:34:02.118Z,9.78
2023-02-24T19:38:17.323Z,9.25
2023-02-24T19:42:30.820Z,9.22
2023-02-24T19:46:43.655Z,9.83
2023-02-24T19:50:56.260Z,9.27
2023-02-24T19:55:10.300Z,9.44
2023-02-24T19:59:23.130Z,10.01
2023-02-24T20:03:39.826Z,9.52
2023-02-24T20:07:52.239Z,9.35
2023-02-24T20:12:04.720Z,9.78
2023-02-24T20:16:19.434Z,9.45
2023-02-24T20:20:31.962Z,9.18
2023-02-24T20:24:47.735Z,8.77
2023-02-24T20:29:02.106Z,8.82
2023-02-24T20:33:15.327Z,9.36
2023-02-24T20:37:27.625Z,8.75
2023-02-24T20:41:40.799Z,8.73
2023-02-24T20:45:53.841Z,9.33
2023-02-24T20:50:06.888Z,9.59
2023-02-24T20:54:19.421Z,9.40
2023-02-24T20:58:32.139Z,9.35
2023-02-24T21:02:45.711Z,8.79
2023-02-24T21:06:58.147Z,9.10
2023-02-24T21:11:12.713Z,8.56
2023-02-24T21:15:25.105Z,8.51
2023-02-24T21:19:38.011Z,8.94
2023-02-24T21:23:51.545Z,8.60
2023-02-24T21:28:04.134Z,9.35
2023-02-24T21:32:16.710Z,9.56
2023-02-24T21:36:29.180Z,9.12
2023-02-24T21:40:41.606Z,8.93
2023-02-24T21:44:59.016Z,9.29
2023-02-24T21:49:15.101Z,9.49
2023-02-24T21:53:30.300Z,8.91
2023-02-24T21:57:45.040Z,9.11
2023-02-24T22:01:57.518Z,8.77
2023-02-24T22:06:11.736Z,9.20
2023-02-24T22:10:24.231Z,9.01
2023-02-24T22:14:36.730Z,8.29
2023-02-24T22:18:50.941Z,8.96
2023-02-24T22:23:03.665Z,9.30
2023-02-24T22:27:16.134Z,9.46
2023-02-24T22:31:32.561Z,9.41
2023-02-24T22:35:44.926Z,8.97
2023-02-24T22:39:58.571Z,8.42
2023-02-24T22:44:11.346Z,8.34
2023-02-24T22:48:27.019Z,9.26
2023-02-24T22:52:40.164Z,9.32
2023-02-24T22:56:56.621Z,9.15
2023-02-24T23:01:14.251Z,9.03
2023-02-24T23:05:26.725Z,9.18
2023-02-24T23:09:39.202Z,9.00
2023-02-24T23:13:52.277Z,9.13
2023-02-24T23:18:04.875Z,9.32
2023-02-24T23:22:19.288Z,9.36
2023-02-24T23:26:34.705Z,9.08
2023-02-24T23:30:48.028Z,8.89
2023-02-24T23:35:00.483Z,8.82
2023-02-24T23:39:15.189Z,8.98
2023-02-24T23:43:27.682Z,8.92
2023-02-24T23:47:40.056Z,8.95
2023-02-24T23:51:52.570Z,8.79
2023-02-24T23:56:18.285Z,8.65
